sensor_id;sensor_type;location;lat;lon;timestamp;P1;durP1;ratioP1;P2;durP2;ratioP2
38611;SDS011;24368;52.156;20.788;2023-04-25T00:03:03;11.40;;;10.40;;
38611;SDS011;24368;52.156;20.788;2023-04-25T00:08:06;11.50;;;10.40;;
38611;SDS011;24368;52.156;20.788;2023-04-25T00:13:08;11.70;;;10.60;;
38611;SDS011;24368;52.156;20.788;2023-04-25T00:18:09;11.40;;;10.40;;
38611;SDS011;24368;52.156;20.788;2023-04-25T00:23:10;10.70;;;9.70;;
38611;SDS011;24368;52.156;20.788;2023-04-25T00:28:11;11.00;;;9.90;;
38611;SDS011;24368;52.156;20.788;2023-04-25T00:33:13;11.90;;;10.90;;
38611;SDS011;24368;52.156;20.788;2023-04-25T00:38:14;10.90;;;9.80;;
38611;SDS011;24368;52.156;20.788;2023-04-25T00:43:15;9.40;;;8.40;;
38611;SDS011;24368;52.156;20.788;2023-04-25T00:48:17;9.80;;;9.00;;
38611;SDS011;24368;52.156;20.788;2023-04-25T00:53:18;9.80;;;8.90;;
38611;SDS011;24368;52.156;20.788;2023-04-25T00:58:20;9.00;;;8.10;;
38611;SDS011;24368;52.156;20.788;2023-04-25T01:03:22;10.00;;;8.90;;
38611;SDS011;24368;52.156;20.788;2023-04-25T01:08:24;9.70;;;8.90;;
38611;SDS011;24368;52.156;20.788;2023-04-25T01:13:28;10.20;;;9.10;;
38611;SDS011;24368;52.156;20.788;2023-04-25T01:18:29;8.60;;;7.80;;
38611;SDS011;24368;52.156;20.788;2023-04-25T01:23:31;8.70;;;7.90;;
38611;SDS011;24368;52.156;20.788;2023-04-25T01:28:34;9.00;;;8.20;;
38611;SDS011;24368;52.156;20.788;2023-04-25T01:33:35;8.90;;;8.10;;
38611;SDS011;24368;52.156;20.788;2023-04-25T01:38:36;7.20;;;6.60;;
38611;SDS011;24368;52.156;20.788;2023-04-25T01:43:38;6.90;;;5.90;;
38611;SDS011;24368;52.156;20.788;2023-04-25T01:48:39;7.40;;;6.80;;
38611;SDS011;24368;52.156;20.788;2023-04-25T01:53:41;6.90;;;6.30;;
38611;SDS011;24368;52.156;20.788;2023-04-25T01:58:43;6.90;;;6.30;;
38611;SDS011;24368;52.156;20.788;2023-04-25T02:03:45;7.40;;;6.70;;
38611;SDS011;24368;52.156;20.788;2023-04-25T02:08:46;6.90;;;6.30;;
38611;SDS011;24368;52.156;20.788;2023-04-25T02:13:47;7.00;;;6.40;;
38611;SDS011;24368;52.156;20.788;2023-04-25T02:18:48;7.00;;;6.30;;
38611;SDS011;24368;52.156;20.788;2023-04-25T02:23:49;7.20;;;6.50;;
38611;SDS011;24368;52.156;20.788;2023-04-25T02:28:52;7.40;;;6.70;;
38611;SDS011;24368;52.156;20.788;2023-04-25T02:33:53;7.20;;;6.60;;
38611;SDS011;24368;52.156;20.788;2023-04-25T02:38:54;7.30;;;6.60;;
38611;SDS011;24368;52.156;20.788;2023-04-25T02:43:56;7.70;;;6.90;;
38611;SDS011;24368;52.156;20.788;2023-04-25T02:48:57;7.60;;;6.70;;
38611;SDS011;24368;52.156;20.788;2023-04-25T02:53:58;8.10;;;7.30;;
38611;SDS011;24368;52.156;20.788;2023-04-25T02:58:59;7.30;;;6.60;;
38611;SDS011;24368;52.156;20.788;2023-04-25T03:04:00;6.90;;;6.20;;
38611;SDS011;24368;52.156;20.788;2023-04-25T03:09:01;6.90;;;6.00;;
38611;SDS011;24368;52.156;20.788;2023-04-25T03:14:02;6.50;;;5.90;;
38611;SDS011;24368;52.156;20.788;2023-04-25T03:19:04;6.00;;;5.50;;
38611;SDS011;24368;52.156;20.788;2023-04-25T03:24:05;5.90;;;5.30;;
38611;SDS011;24368;52.156;20.788;2023-04-25T03:29:06;5.30;;;4.80;;
38611;SDS011;24368;52.156;20.788;2023-04-25T03:34:08;5.70;;;5.10;;
38611;SDS011;24368;52.156;20.788;2023-04-25T03:39:09;4.60;;;4.10;;
38611;SDS011;24368;52.156;20.788;2023-04-25T03:44:10;5.20;;;4.70;;
38611;SDS011;24368;52.156;20.788;2023-04-25T03:49:11;4.10;;;3.70;;
38611;SDS011;24368;52.156;20.788;2023-04-25T03:54:12;4.40;;;4.10;;
38611;SDS011;24368;52.156;20.788;2023-04-25T03:59:13;4.00;;;3.70;;
38611;SDS011;24368;52.156;20.788;2023-04-25T04:04:15;4.70;;;4.30;;
38611;SDS011;24368;52.156;20.788;2023-04-25T04:09:16;4.10;;;3.70;;
38611;SDS011;24368;52.156;20.788;2023-04-25T04:14:17;5.20;;;4.70;;
38611;SDS011;24368;52.156;20.788;2023-04-25T04:19:18;5.90;;;5.30;;
38611;SDS011;24368;52.156;20.788;2023-04-25T04:24:19;4.90;;;4.50;;
38611;SDS011;24368;52.156;20.788;2023-04-25T04:29:21;3.70;;;3.30;;
38611;SDS011;24368;52.156;20.788;2023-04-25T04:34:22;5.30;;;4.80;;
38611;SDS011;24368;52.156;20.788;2023-04-25T04:39:25;6.00;;;5.40;;
38611;SDS011;24368;52.156;20.788;2023-04-25T04:44:26;5.40;;;4.90;;
38611;SDS011;24368;52.156;20.788;2023-04-25T04:49:29;7.00;;;6.30;;
38611;SDS011;24368;52.156;20.788;2023-04-25T04:54:30;5.50;;;5.00;;
38611;SDS011;24368;52.156;20.788;2023-04-25T04:59:31;7.00;;;6.40;;
38611;SDS011;24368;52.156;20.788;2023-04-25T05:04:32;6.90;;;6.30;;
38611;SDS011;24368;52.156;20.788;2023-04-25T05:09:33;7.20;;;6.60;;
38611;SDS011;24368;52.156;20.788;2023-04-25T05:14:35;6.60;;;6.00;;
38611;SDS011;24368;52.156;20.788;2023-04-25T05:19:36;7.50;;;6.90;;
38611;SDS011;24368;52.156;20.788;2023-04-25T05:24:37;7.60;;;6.90;;
38611;SDS011;24368;52.156;20.788;2023-04-25T05:29:38;7.80;;;6.60;;
38611;SDS011;24368;52.156;20.788;2023-04-25T05:34:40;6.40;;;5.80;;
38611;SDS011;24368;52.156;20.788;2023-04-25T05:39:42;7.50;;;6.90;;
38611;SDS011;24368;52.156;20.788;2023-04-25T05:44:44;8.10;;;7.40;;
38611;SDS011;24368;52.156;20.788;2023-04-25T05:49:45;6.80;;;6.20;;
38611;SDS011;24368;52.156;20.788;2023-04-25T05:54:46;7.30;;;6.60;;
38611;SDS011;24368;52.156;20.788;2023-04-25T05:59:47;8.00;;;7.30;;
38611;SDS011;24368;52.156;20.788;2023-04-25T06:04:51;6.40;;;5.90;;
38611;SDS011;24368;52.156;20.788;2023-04-25T06:09:53;6.00;;;5.50;;
38611;SDS011;24368;52.156;20.788;2023-04-25T06:14:54;6.20;;;5.60;;
38611;SDS011;24368;52.156;20.788;2023-04-25T06:19:55;7.60;;;5.40;;
38611;SDS011;24368;52.156;20.788;2023-04-25T06:24:56;5.60;;;5.10;;
38611;SDS011;24368;52.156;20.788;2023-04-25T06:29:59;5.90;;;5.30;;
38611;SDS011;24368;52.156;20.788;2023-04-25T06:35:00;4.40;;;3.90;;
38611;SDS011;24368;52.156;20.788;2023-04-25T06:40:01;6.60;;;5.90;;
38611;SDS011;24368;52.156;20.788;2023-04-25T06:45:03;5.70;;;5.20;;
38611;SDS011;24368;52.156;20.788;2023-04-25T06:50:05;5.10;;;4.70;;
38611;SDS011;24368;52.156;20.788;2023-04-25T06:55:06;4.70;;;4.40;;
38611;SDS011;24368;52.156;20.788;2023-04-25T07:00:08;6.30;;;5.60;;
38611;SDS011;24368;52.156;20.788;2023-04-25T07:05:10;3.90;;;3.60;;
38611;SDS011;24368;52.156;20.788;2023-04-25T07:10:11;3.50;;;3.10;;
38611;SDS011;24368;52.156;20.788;2023-04-25T07:15:12;3.50;;;3.20;;
38611;SDS011;24368;52.156;20.788;2023-04-25T07:20:13;3.70;;;3.40;;
38611;SDS011;24368;52.156;20.788;2023-04-25T07:25:15;4.00;;;3.60;;
38611;SDS011;24368;52.156;20.788;2023-04-25T07:30:17;3.80;;;3.50;;
38611;SDS011;24368;52.156;20.788;2023-04-25T07:35:18;4.10;;;3.80;;
38611;SDS011;24368;52.156;20.788;2023-04-25T07:40:19;2.60;;;2.40;;
38611;SDS011;24368;52.156;20.788;2023-04-25T07:45:21;2.60;;;2.40;;
38611;SDS011;24368;52.156;20.788;2023-04-25T07:50:22;3.10;;;2.90;;
38611;SDS011;24368;52.156;20.788;2023-04-25T07:55:23;3.40;;;3.10;;
38611;SDS011;24368;52.156;20.788;2023-04-25T08:00:24;2.80;;;1.90;;
38611;SDS011;24368;52.156;20.788;2023-04-25T08:05:25;3.50;;;3.00;;
38611;SDS011;24368;52.156;20.788;2023-04-25T08:10:26;2.80;;;2.60;;
38611;SDS011;24368;52.156;20.788;2023-04-25T08:15:28;3.50;;;3.20;;
38611;SDS011;24368;52.156;20.788;2023-04-25T08:20:29;3.70;;;3.40;;
38611;SDS011;24368;52.156;20.788;2023-04-25T08:25:30;6.00;;;4.30;;
38611;SDS011;24368;52.156;20.788;2023-04-25T08:30:31;3.50;;;3.20;;
38611;SDS011;24368;52.156;20.788;2023-04-25T08:35:32;4.50;;;3.50;;
38611;SDS011;24368;52.156;20.788;2023-04-25T08:40:35;3.80;;;3.30;;
38611;SDS011;24368;52.156;20.788;2023-04-25T08:45:39;3.70;;;3.40;;
38611;SDS011;24368;52.156;20.788;2023-04-25T08:50:45;4.00;;;3.70;;
38611;SDS011;24368;52.156;20.788;2023-04-25T08:55:55;3.60;;;3.30;;
38611;SDS011;24368;52.156;20.788;2023-04-25T09:00:57;3.90;;;3.60;;
38611;SDS011;24368;52.156;20.788;2023-04-25T09:05:58;3.60;;;3.40;;
38611;SDS011;24368;52.156;20.788;2023-04-25T09:11:00;4.10;;;3.80;;
38611;SDS011;24368;52.156;20.788;2023-04-25T09:16:01;3.70;;;3.40;;
38611;SDS011;24368;52.156;20.788;2023-04-25T09:21:09;4.90;;;4.60;;
38611;SDS011;24368;52.156;20.788;2023-04-25T09:26:17;4.00;;;3.70;;
38611;SDS011;24368;52.156;20.788;2023-04-25T09:31:22;4.30;;;4.00;;
38611;SDS011;24368;52.156;20.788;2023-04-25T09:36:27;4.10;;;3.80;;
38611;SDS011;24368;52.156;20.788;2023-04-25T09:41:29;4.00;;;3.70;;
38611;SDS011;24368;52.156;20.788;2023-04-25T09:46:34;4.90;;;4.50;;
38611;SDS011;24368;52.156;20.788;2023-04-25T09:51:38;4.00;;;3.60;;
38611;SDS011;24368;52.156;20.788;2023-04-25T09:56:39;4.30;;;3.90;;
38611;SDS011;24368;52.156;20.788;2023-04-25T10:01:40;8.00;;;7.20;;
38611;SDS011;24368;52.156;20.788;2023-04-25T10:06:44;4.50;;;4.20;;
38611;SDS011;24368;52.156;20.788;2023-04-25T10:11:47;6.60;;;5.70;;
38611;SDS011;24368;52.156;20.788;2023-04-25T10:16:49;5.80;;;5.00;;
38611;SDS011;24368;52.156;20.788;2023-04-25T10:21:56;7.00;;;6.40;;
38611;SDS011;24368;52.156;20.788;2023-04-25T10:27:04;8.90;;;7.70;;
38611;SDS011;24368;52.156;20.788;2023-04-25T10:32:06;7.90;;;7.10;;
38611;SDS011;24368;52.156;20.788;2023-04-25T10:37:09;10.70;;;8.90;;
38611;SDS011;24368;52.156;20.788;2023-04-25T10:42:12;9.20;;;8.20;;
38611;SDS011;24368;52.156;20.788;2023-04-25T10:47:13;7.00;;;6.30;;
38611;SDS011;24368;52.156;20.788;2023-04-25T10:52:34;6.90;;;6.30;;
38611;SDS011;24368;52.156;20.788;2023-04-25T10:57:39;5.20;;;4.80;;
38611;SDS011;24368;52.156;20.788;2023-04-25T11:02:43;3.40;;;3.20;;
38611;SDS011;24368;52.156;20.788;2023-04-25T11:07:51;4.30;;;2.90;;
38611;SDS011;24368;52.156;20.788;2023-04-25T11:12:55;3.30;;;2.70;;
38611;SDS011;24368;52.156;20.788;2023-04-25T11:17:57;3.10;;;2.80;;
38611;SDS011;24368;52.156;20.788;2023-04-25T11:22:58;5.00;;;4.60;;
38611;SDS011;24368;52.156;20.788;2023-04-25T11:28:00;6.50;;;5.90;;
38611;SDS011;24368;52.156;20.788;2023-04-25T11:33:02;2.90;;;2.70;;
38611;SDS011;24368;52.156;20.788;2023-04-25T11:43:28;3.00;;;2.80;;
38611;SDS011;24368;52.156;20.788;2023-04-25T11:48:36;2.70;;;2.50;;
38611;SDS011;24368;52.156;20.788;2023-04-25T11:53:41;3.80;;;3.40;;
38611;SDS011;24368;52.156;20.788;2023-04-25T12:04:11;7.30;;;6.50;;
38611;SDS011;24368;52.156;20.788;2023-04-25T12:09:13;4.00;;;2.60;;
38611;SDS011;24368;52.156;20.788;2023-04-25T12:19:34;3.80;;;3.20;;
38611;SDS011;24368;52.156;20.788;2023-04-25T12:24:36;3.60;;;3.30;;
38611;SDS011;24368;52.156;20.788;2023-04-25T12:29:38;4.00;;;3.10;;
38611;SDS011;24368;52.156;20.788;2023-04-25T12:34:39;5.70;;;3.20;;
38611;SDS011;24368;52.156;20.788;2023-04-25T12:39:40;4.20;;;3.50;;
38611;SDS011;24368;52.156;20.788;2023-04-25T12:44:42;5.50;;;3.80;;
38611;SDS011;24368;52.156;20.788;2023-04-25T12:49:43;6.10;;;5.40;;
38611;SDS011;24368;52.156;20.788;2023-04-25T12:54:44;4.50;;;4.00;;
38611;SDS011;24368;52.156;20.788;2023-04-25T12:59:46;5.90;;;5.30;;
38611;SDS011;24368;52.156;20.788;2023-04-25T13:04:47;4.70;;;4.30;;
38611;SDS011;24368;52.156;20.788;2023-04-25T13:09:48;3.50;;;3.30;;
38611;SDS011;24368;52.156;20.788;2023-04-25T13:14:49;7.40;;;6.70;;
38611;SDS011;24368;52.156;20.788;2023-04-25T13:19:50;6.70;;;6.10;;
38611;SDS011;24368;52.156;20.788;2023-04-25T13:24:51;6.40;;;5.80;;
38611;SDS011;24368;52.156;20.788;2023-04-25T13:29:53;5.30;;;4.80;;
38611;SDS011;24368;52.156;20.788;2023-04-25T13:34:54;4.60;;;4.30;;
38611;SDS011;24368;52.156;20.788;2023-04-25T13:39:56;5.60;;;5.20;;
38611;SDS011;24368;52.156;20.788;2023-04-25T13:44:57;5.60;;;5.10;;
38611;SDS011;24368;52.156;20.788;2023-04-25T13:49:58;6.70;;;6.00;;
38611;SDS011;24368;52.156;20.788;2023-04-25T13:55:00;6.10;;;5.60;;
38611;SDS011;24368;52.156;20.788;2023-04-25T14:00:04;6.40;;;5.80;;
38611;SDS011;24368;52.156;20.788;2023-04-25T14:05:09;6.60;;;6.10;;
38611;SDS011;24368;52.156;20.788;2023-04-25T14:10:10;7.50;;;6.90;;
38611;SDS011;24368;52.156;20.788;2023-04-25T14:15:11;7.80;;;7.20;;
38611;SDS011;24368;52.156;20.788;2023-04-25T14:20:13;7.10;;;6.30;;
38611;SDS011;24368;52.156;20.788;2023-04-25T14:25:14;6.70;;;5.90;;
38611;SDS011;24368;52.156;20.788;2023-04-25T14:30:16;6.10;;;5.60;;
38611;SDS011;24368;52.156;20.788;2023-04-25T14:35:18;5.80;;;5.30;;
38611;SDS011;24368;52.156;20.788;2023-04-25T14:40:19;5.80;;;5.30;;
38611;SDS011;24368;52.156;20.788;2023-04-25T14:45:23;4.60;;;4.20;;
38611;SDS011;24368;52.156;20.788;2023-04-25T14:50:24;5.00;;;4.50;;
38611;SDS011;24368;52.156;20.788;2023-04-25T14:55:26;4.40;;;4.00;;
38611;SDS011;24368;52.156;20.788;2023-04-25T15:00:27;6.80;;;6.20;;
38611;SDS011;24368;52.156;20.788;2023-04-25T15:05:32;6.80;;;6.00;;
38611;SDS011;24368;52.156;20.788;2023-04-25T15:10:36;7.40;;;6.60;;
38611;SDS011;24368;52.156;20.788;2023-04-25T15:15:37;5.80;;;4.70;;
38611;SDS011;24368;52.156;20.788;2023-04-25T15:20:39;5.60;;;5.10;;
38611;SDS011;24368;52.156;20.788;2023-04-25T15:25:40;5.30;;;4.70;;
38611;SDS011;24368;52.156;20.788;2023-04-25T15:30:42;5.80;;;5.40;;
38611;SDS011;24368;52.156;20.788;2023-04-25T15:35:44;6.20;;;5.30;;
38611;SDS011;24368;52.156;20.788;2023-04-25T15:40:45;5.40;;;4.90;;
38611;SDS011;24368;52.156;20.788;2023-04-25T15:45:46;4.80;;;4.50;;
38611;SDS011;24368;52.156;20.788;2023-04-25T15:50:47;6.20;;;4.80;;
38611;SDS011;24368;52.156;20.788;2023-04-25T15:55:49;5.60;;;5.10;;
38611;SDS011;24368;52.156;20.788;2023-04-25T16:00:50;6.20;;;5.70;;
38611;SDS011;24368;52.156;20.788;2023-04-25T16:05:52;6.80;;;6.20;;
38611;SDS011;24368;52.156;20.788;2023-04-25T16:10:53;5.40;;;5.00;;
38611;SDS011;24368;52.156;20.788;2023-04-25T16:15:54;6.30;;;5.30;;
38611;SDS011;24368;52.156;20.788;2023-04-25T16:20:55;4.20;;;3.70;;
38611;SDS011;24368;52.156;20.788;2023-04-25T16:25:57;5.80;;;5.10;;
38611;SDS011;24368;52.156;20.788;2023-04-25T16:30:58;10.50;;;9.00;;
38611;SDS011;24368;52.156;20.788;2023-04-25T16:35:59;6.00;;;4.90;;
38611;SDS011;24368;52.156;20.788;2023-04-25T16:41:00;4.20;;;3.90;;
38611;SDS011;24368;52.156;20.788;2023-04-25T16:46:01;4.10;;;3.80;;
38611;SDS011;24368;52.156;20.788;2023-04-25T16:51:02;5.00;;;4.40;;
38611;SDS011;24368;52.156;20.788;2023-04-25T16:56:04;5.80;;;5.00;;
38611;SDS011;24368;52.156;20.788;2023-04-25T17:01:07;4.50;;;4.20;;
38611;SDS011;24368;52.156;20.788;2023-04-25T17:06:08;6.30;;;4.20;;
38611;SDS011;24368;52.156;20.788;2023-04-25T17:11:10;4.80;;;4.40;;
38611;SDS011;24368;52.156;20.788;2023-04-25T17:16:11;5.60;;;4.80;;
38611;SDS011;24368;52.156;20.788;2023-04-25T17:21:16;6.30;;;5.10;;
38611;SDS011;24368;52.156;20.788;2023-04-25T17:26:18;5.40;;;4.90;;
38611;SDS011;24368;52.156;20.788;2023-04-25T17:31:19;6.20;;;5.70;;
38611;SDS011;24368;52.156;20.788;2023-04-25T17:36:23;4.90;;;4.40;;
38611;SDS011;24368;52.156;20.788;2023-04-25T17:41:24;4.50;;;4.10;;
38611;SDS011;24368;52.156;20.788;2023-04-25T17:46:25;5.30;;;4.70;;
38611;SDS011;24368;52.156;20.788;2023-04-25T17:51:27;6.30;;;5.70;;
38611;SDS011;24368;52.156;20.788;2023-04-25T17:56:28;10.00;;;9.00;;
38611;SDS011;24368;52.156;20.788;2023-04-25T18:01:30;13.10;;;10.30;;
38611;SDS011;24368;52.156;20.788;2023-04-25T18:06:32;7.70;;;7.00;;
38611;SDS011;24368;52.156;20.788;2023-04-25T18:11:33;5.50;;;5.00;;
38611;SDS011;24368;52.156;20.788;2023-04-25T18:16:34;7.50;;;6.60;;
38611;SDS011;24368;52.156;20.788;2023-04-25T18:21:35;7.50;;;5.40;;
38611;SDS011;24368;52.156;20.788;2023-04-25T18:26:37;6.20;;;5.70;;
38611;SDS011;24368;52.156;20.788;2023-04-25T18:31:39;6.80;;;6.20;;
38611;SDS011;24368;52.156;20.788;2023-04-25T18:36:41;6.60;;;6.00;;
38611;SDS011;24368;52.156;20.788;2023-04-25T18:41:43;7.50;;;6.70;;
38611;SDS011;24368;52.156;20.788;2023-04-25T18:46:44;7.40;;;6.60;;
38611;SDS011;24368;52.156;20.788;2023-04-25T18:51:46;8.00;;;6.20;;
38611;SDS011;24368;52.156;20.788;2023-04-25T18:56:48;6.70;;;6.10;;
38611;SDS011;24368;52.156;20.788;2023-04-25T19:01:50;6.40;;;5.90;;
38611;SDS011;24368;52.156;20.788;2023-04-25T19:06:53;7.10;;;6.50;;
38611;SDS011;24368;52.156;20.788;2023-04-25T19:11:54;7.90;;;6.20;;
38611;SDS011;24368;52.156;20.788;2023-04-25T19:16:55;7.00;;;6.40;;
38611;SDS011;24368;52.156;20.788;2023-04-25T19:21:58;8.70;;;7.60;;
38611;SDS011;24368;52.156;20.788;2023-04-25T19:27:00;7.10;;;6.50;;
38611;SDS011;24368;52.156;20.788;2023-04-25T19:32:02;8.70;;;7.80;;
38611;SDS011;24368;52.156;20.788;2023-04-25T19:37:04;8.20;;;7.40;;
38611;SDS011;24368;52.156;20.788;2023-04-25T19:42:06;7.60;;;6.90;;
38611;SDS011;24368;52.156;20.788;2023-04-25T19:47:08;8.30;;;7.50;;
38611;SDS011;24368;52.156;20.788;2023-04-25T19:52:10;7.20;;;6.60;;
38611;SDS011;24368;52.156;20.788;2023-04-25T19:57:14;7.20;;;6.60;;
38611;SDS011;24368;52.156;20.788;2023-04-25T20:02:15;8.60;;;7.30;;
38611;SDS011;24368;52.156;20.788;2023-04-25T20:07:18;8.80;;;8.00;;
38611;SDS011;24368;52.156;20.788;2023-04-25T20:12:21;8.40;;;7.70;;
38611;SDS011;24368;52.156;20.788;2023-04-25T20:17:23;11.90;;;10.70;;
38611;SDS011;24368;52.156;20.788;2023-04-25T20:22:25;10.40;;;8.50;;
38611;SDS011;24368;52.156;20.788;2023-04-25T20:27:28;7.60;;;6.90;;
38611;SDS011;24368;52.156;20.788;2023-04-25T20:32:30;8.90;;;8.10;;
38611;SDS011;24368;52.156;20.788;2023-04-25T20:37:31;9.80;;;8.70;;
38611;SDS011;24368;52.156;20.788;2023-04-25T20:42:33;12.00;;;10.90;;
38611;SDS011;24368;52.156;20.788;2023-04-25T20:47:35;8.80;;;8.00;;
38611;SDS011;24368;52.156;20.788;2023-04-25T20:52:36;12.10;;;8.90;;
38611;SDS011;24368;52.156;20.788;2023-04-25T20:57:38;10.20;;;9.30;;
38611;SDS011;24368;52.156;20.788;2023-04-25T21:02:39;12.00;;;9.40;;
38611;SDS011;24368;52.156;20.788;2023-04-25T21:07:40;12.80;;;11.50;;
38611;SDS011;24368;52.156;20.788;2023-04-25T21:12:41;13.70;;;12.50;;
38611;SDS011;24368;52.156;20.788;2023-04-25T21:17:48;12.10;;;11.00;;
38611;SDS011;24368;52.156;20.788;2023-04-25T21:22:50;12.20;;;11.10;;
38611;SDS011;24368;52.156;20.788;2023-04-25T21:27:51;14.80;;;13.30;;
38611;SDS011;24368;52.156;20.788;2023-04-25T21:32:53;15.80;;;14.10;;
38611;SDS011;24368;52.156;20.788;2023-04-25T21:37:54;10.00;;;9.00;;
38611;SDS011;24368;52.156;20.788;2023-04-25T21:42:55;11.50;;;10.40;;
38611;SDS011;24368;52.156;20.788;2023-04-25T21:47:56;10.50;;;9.60;;
38611;SDS011;24368;52.156;20.788;2023-04-25T21:52:57;9.80;;;8.90;;
38611;SDS011;24368;52.156;20.788;2023-04-25T21:57:59;10.50;;;9.50;;
38611;SDS011;24368;52.156;20.788;2023-04-25T22:03:00;11.50;;;10.40;;
38611;SDS011;24368;52.156;20.788;2023-04-25T22:08:01;17.30;;;15.50;;
38611;SDS011;24368;52.156;20.788;2023-04-25T22:13:03;8.70;;;7.80;;
38611;SDS011;24368;52.156;20.788;2023-04-25T22:18:05;8.00;;;7.30;;
38611;SDS011;24368;52.156;20.788;2023-04-25T22:23:06;7.50;;;6.80;;
38611;SDS011;24368;52.156;20.788;2023-04-25T22:28:08;7.70;;;7.00;;
38611;SDS011;24368;52.156;20.788;2023-04-25T22:33:10;10.40;;;9.40;;
38611;SDS011;24368;52.156;20.788;2023-04-25T22:38:11;5.60;;;5.10;;
38611;SDS011;24368;52.156;20.788;2023-04-25T22:43:13;5.50;;;4.90;;
38611;SDS011;24368;52.156;20.788;2023-04-25T22:48:15;5.00;;;4.40;;
38611;SDS011;24368;52.156;20.788;2023-04-25T22:53:16;4.70;;;3.80;;
38611;SDS011;24368;52.156;20.788;2023-04-25T22:58:18;5.00;;;4.10;;
38611;SDS011;24368;52.156;20.788;2023-04-25T23:03:20;20.10;;;17.10;;
38611;SDS011;24368;52.156;20.788;2023-04-25T23:08:22;4.60;;;3.70;;
38611;SDS011;24368;52.156;20.788;2023-04-25T23:13:23;8.20;;;3.40;;
38611;SDS011;24368;52.156;20.788;2023-04-25T23:18:24;8.10;;;3.90;;
38611;SDS011;24368;52.156;20.788;2023-04-25T23:23:25;7.50;;;4.10;;
38611;SDS011;24368;52.156;20.788;2023-04-25T23:28:27;7.70;;;3.80;;
38611;SDS011;24368;52.156;20.788;2023-04-25T23:33:28;7.50;;;3.50;;
38611;SDS011;24368;52.156;20.788;2023-04-25T23:38:29;6.90;;;3.70;;
38611;SDS011;24368;52.156;20.788;2023-04-25T23:43:30;8.40;;;4.10;;
38611;SDS011;24368;52.156;20.788;2023-04-25T23:48:31;4.10;;;3.30;;
38611;SDS011;24368;52.156;20.788;2023-04-25T23:53:32;6.00;;;3.20;;
38611;SDS011;24368;52.156;20.788;2023-04-25T23:58:33;6.70;;;3.80;;
